Terminal Aerodrome Forecast
Issued by NWS

Home | Current Version | Previous Version | Text Only | Print | Product List | Glossary On
Versions: 1 2 3 4 5 6 7 8 9 10 11 12 13 14 15 16 17 18 19
000
FTUS41 KCAR 231900 AAC
TAFHUL
TAF AMD
KHUL 231935Z 2320/2418 31009KT 2SM BR OVC007
     FM232100 32008KT 6SM -SHRA OVC015
     FM232300 35007KT 3SM -RA OVC008
     FM241400 35013G20KT 6SM -RADZ OVC010=

USA.gov is the U.S. government's official web portal to all federal, state and local government web resources and services.